sensor_id;sensor_type;location;lat;lon;timestamp;pressure;altitude;pressure_sealevel;temperature;humidity
34297;BME280;20564;42.902;25.336;2023-04-19T00:00:05;96780.84;;;9.64;100.00
34297;BME280;20564;42.902;25.336;2023-04-19T00:02:35;96777.13;;;9.57;100.00
34297;BME280;20564;42.902;25.336;2023-04-19T00:05:04;96777.84;;;9.59;100.00
34297;BME280;20564;42.902;25.336;2023-04-19T00:07:32;96774.06;;;9.61;100.00
34297;BME280;20564;42.902;25.336;2023-04-19T00:09:59;96773.13;;;9.62;100.00
34297;BME280;20564;42.902;25.336;2023-04-19T00:12:26;96775.06;;;9.60;100.00
34297;BME280;20564;42.902;25.336;2023-04-19T00:14:53;96766.50;;;9.58;100.00
34297;BME280;20564;42.902;25.336;2023-04-19T00:17:20;96762.91;;;9.59;100.00
34297;BME280;20564;42.902;25.336;2023-04-19T00:19:47;96762.63;;;9.53;100.00
34297;BME280;20564;42.902;25.336;2023-04-19T00:22:13;96765.53;;;9.59;100.00
34297;BME280;20564;42.902;25.336;2023-04-19T00:24:41;96762.34;;;9.56;100.00
34297;BME280;20564;42.902;25.336;2023-04-19T00:27:07;96767.31;;;9.59;100.00
34297;BME280;20564;42.902;25.336;2023-04-19T00:29:34;96763.72;;;9.60;100.00
34297;BME280;20564;42.902;25.336;2023-04-19T00:32:02;96763.97;;;9.66;100.00
34297;BME280;20564;42.902;25.336;2023-04-19T00:34:31;96758.19;;;9.63;100.00
34297;BME280;20564;42.902;25.336;2023-04-19T00:36:59;96761.09;;;9.60;100.00
34297;BME280;20564;42.902;25.336;2023-04-19T00:39:26;96751.56;;;9.59;100.00
34297;BME280;20564;42.902;25.336;2023-04-19T00:41:53;96753.22;;;9.60;100.00
34297;BME280;20564;42.902;25.336;2023-04-19T00:44:23;96755.00;;;9.59;100.00
34297;BME280;20564;42.902;25.336;2023-04-19T00:46:52;96752.94;;;9.63;100.00
34297;BME280;20564;42.902;25.336;2023-04-19T00:49:21;96750.97;;;9.65;100.00
34297;BME280;20564;42.902;25.336;2023-04-19T00:51:52;96752.63;;;9.66;100.00
34297;BME280;20564;42.902;25.336;2023-04-19T00:54:19;96747.09;;;9.69;100.00
34297;BME280;20564;42.902;25.336;2023-04-19T00:56:46;96750.38;;;9.71;100.00
34297;BME280;20564;42.902;25.336;2023-04-19T00:59:14;96757.00;;;9.75;100.00
34297;BME280;20564;42.902;25.336;2023-04-19T01:01:42;96750.09;;;9.74;100.00
34297;BME280;20564;42.902;25.336;2023-04-19T01:04:09;96749.22;;;9.83;100.00
34297;BME280;20564;42.902;25.336;2023-04-19T01:06:39;96753.66;;;9.83;100.00
34297;BME280;20564;42.902;25.336;2023-04-19T01:09:12;96752.91;;;9.90;100.00
34297;BME280;20564;42.902;25.336;2023-04-19T01:11:40;96754.31;;;9.95;100.00
34297;BME280;20564;42.902;25.336;2023-04-19T01:14:09;96753.34;;;9.86;100.00
34297;BME280;20564;42.902;25.336;2023-04-19T01:16:36;96752.81;;;9.82;100.00
34297;BME280;20564;42.902;25.336;2023-04-19T01:19:04;96747.56;;;9.82;100.00
34297;BME280;20564;42.902;25.336;2023-04-19T01:21:32;96741.97;;;9.68;100.00
34297;BME280;20564;42.902;25.336;2023-04-19T01:23:59;96744.88;;;9.64;100.00
34297;BME280;20564;42.902;25.336;2023-04-19T01:26:27;96738.81;;;9.64;100.00
34297;BME280;20564;42.902;25.336;2023-04-19T01:28:55;96738.81;;;9.64;100.00
34297;BME280;20564;42.902;25.336;2023-04-19T01:31:22;96736.72;;;9.68;100.00
34297;BME280;20564;42.902;25.336;2023-04-19T01:33:49;96738.97;;;9.62;100.00
34297;BME280;20564;42.902;25.336;2023-04-19T01:36:16;96733.84;;;9.61;100.00
34297;BME280;20564;42.902;25.336;2023-04-19T01:38:46;96731.91;;;9.63;100.00
34297;BME280;20564;42.902;25.336;2023-04-19T01:41:16;96732.19;;;9.60;100.00
34297;BME280;20564;42.902;25.336;2023-04-19T01:43:47;96725.94;;;9.61;100.00
34297;BME280;20564;42.902;25.336;2023-04-19T01:46:14;96728.56;;;9.61;100.00
34297;BME280;20564;42.902;25.336;2023-04-19T01:48:42;96728.00;;;9.67;100.00
34297;BME280;20564;42.902;25.336;2023-04-19T01:51:09;96724.03;;;9.63;100.00
34297;BME280;20564;42.902;25.336;2023-04-19T01:53:36;96720.13;;;9.67;100.00
34297;BME280;20564;42.902;25.336;2023-04-19T01:56:04;96720.41;;;9.64;100.00
34297;BME280;20564;42.902;25.336;2023-04-19T01:58:31;96717.94;;;9.62;100.00
34297;BME280;20564;42.902;25.336;2023-04-19T02:00:59;96723.31;;;9.61;100.00
34297;BME280;20564;42.902;25.336;2023-04-19T02:03:26;96723.03;;;9.64;100.00
34297;BME280;20564;42.902;25.336;2023-04-19T02:05:55;96721.09;;;9.66;100.00
34297;BME280;20564;42.902;25.336;2023-04-19T02:08:25;96719.44;;;9.65;100.00
34297;BME280;20564;42.902;25.336;2023-04-19T02:10:53;96719.00;;;9.70;100.00
34297;BME280;20564;42.902;25.336;2023-04-19T02:13:20;96716.22;;;9.71;100.00
34297;BME280;20564;42.902;25.336;2023-04-19T02:15:48;96716.38;;;9.70;100.00
34297;BME280;20564;42.902;25.336;2023-04-19T02:18:16;96717.88;;;9.72;100.00
34297;BME280;20564;42.902;25.336;2023-04-19T02:20:44;96718.56;;;9.74;100.00
34297;BME280;20564;42.902;25.336;2023-04-19T02:23:12;96716.63;;;9.76;100.00
34297;BME280;20564;42.902;25.336;2023-04-19T02:25:40;96721.56;;;9.79;100.00
34297;BME280;20564;42.902;25.336;2023-04-19T02:28:08;96716.47;;;9.78;100.00
34297;BME280;20564;42.902;25.336;2023-04-19T02:30:36;96711.06;;;9.79;100.00
34297;BME280;20564;42.902;25.336;2023-04-19T02:33:04;96717.66;;;9.83;100.00
34297;BME280;20564;42.902;25.336;2023-04-19T02:35:32;96713.09;;;9.85;100.00
34297;BME280;20564;42.902;25.336;2023-04-19T02:38:00;96706.88;;;9.86;100.00
34297;BME280;20564;42.902;25.336;2023-04-19T02:40:27;96711.06;;;9.79;100.00
34297;BME280;20564;42.902;25.336;2023-04-19T02:42:55;96709.13;;;9.81;100.00
34297;BME280;20564;42.902;25.336;2023-04-19T02:45:28;96714.66;;;9.78;100.00
34297;BME280;20564;42.902;25.336;2023-04-19T02:48:15;96707.22;;;9.74;100.00
34297;BME280;20564;42.902;25.336;2023-04-19T02:50:59;96710.88;;;9.63;100.00
34297;BME280;20564;42.902;25.336;2023-04-19T02:53:34;96705.91;;;9.60;100.00
34297;BME280;20564;42.902;25.336;2023-04-19T02:56:03;96706.91;;;9.59;100.00
34297;BME280;20564;42.902;25.336;2023-04-19T02:58:54;96707.63;;;9.51;100.00
34297;BME280;20564;42.902;25.336;2023-04-19T03:01:32;96711.09;;;9.42;100.00
34297;BME280;20564;42.902;25.336;2023-04-19T03:04:06;96713.47;;;9.35;100.00
34297;BME280;20564;42.902;25.336;2023-04-19T03:06:41;96708.84;;;9.20;100.00
34297;BME280;20564;42.902;25.336;2023-04-19T03:09:20;96714.38;;;9.16;100.00
34297;BME280;20564;42.902;25.336;2023-04-19T03:11:48;96710.22;;;9.14;100.00
34297;BME280;20564;42.902;25.336;2023-04-19T03:14:21;96712.47;;;9.09;100.00
34297;BME280;20564;42.902;25.336;2023-04-19T03:16:50;96716.34;;;9.05;100.00
34297;BME280;20564;42.902;25.336;2023-04-19T03:19:18;96713.34;;;9.00;100.00
34297;BME280;20564;42.902;25.336;2023-04-19T03:21:47;96708.50;;;8.95;100.00
34297;BME280;20564;42.902;25.336;2023-04-19T03:24:25;96715.09;;;8.99;100.00
34297;BME280;20564;42.902;25.336;2023-04-19T03:26:58;96713.34;;;9.00;100.00
34297;BME280;20564;42.902;25.336;2023-04-19T03:29:31;96713.34;;;9.00;100.00
34297;BME280;20564;42.902;25.336;2023-04-19T03:31:59;96721.31;;;9.08;100.00
34297;BME280;20564;42.902;25.336;2023-04-19T03:34:26;96717.44;;;9.02;100.00
34297;BME280;20564;42.902;25.336;2023-04-19T03:36:53;96720.22;;;9.01;100.00
34297;BME280;20564;42.902;25.336;2023-04-19T03:39:23;96720.22;;;9.01;100.00
34297;BME280;20564;42.902;25.336;2023-04-19T03:41:50;96726.03;;;8.94;100.00
34297;BME280;20564;42.902;25.336;2023-04-19T03:44:17;96732.66;;;8.99;100.00
34297;BME280;20564;42.902;25.336;2023-04-19T03:46:44;96721.22;;;9.00;100.00
34297;BME280;20564;42.902;25.336;2023-04-19T03:49:12;96721.75;;;9.03;100.00
34297;BME280;20564;42.902;25.336;2023-04-19T03:51:39;96719.69;;;9.07;100.00
34297;BME280;20564;42.902;25.336;2023-04-19T03:54:11;96726.56;;;9.08;100.00
34297;BME280;20564;42.902;25.336;2023-04-19T03:56:47;96723.41;;;9.04;100.00
34297;BME280;20564;42.902;25.336;2023-04-19T03:59:45;96721.75;;;9.03;100.00
34297;BME280;20564;42.902;25.336;2023-04-19T04:02:32;96727.56;;;9.07;100.00
34297;BME280;20564;42.902;25.336;2023-04-19T04:05:26;96725.47;;;9.01;100.00
34297;BME280;20564;42.902;25.336;2023-04-19T04:08:09;96735.97;;;9.01;100.00
34297;BME280;20564;42.902;25.336;2023-04-19T04:10:46;96732.94;;;8.96;100.00
34297;BME280;20564;42.902;25.336;2023-04-19T04:13:24;96735.72;;;8.94;100.00
34297;BME280;20564;42.902;25.336;2023-04-19T04:16:17;96734.06;;;8.93;100.00
34297;BME280;20564;42.902;25.336;2023-04-19T04:19:11;96729.63;;;8.93;100.00
34297;BME280;20564;42.902;25.336;2023-04-19T04:22:06;96728.53;;;8.96;100.00
34297;BME280;20564;42.902;25.336;2023-04-19T04:24:38;96734.75;;;8.95;100.00
34297;BME280;20564;42.902;25.336;2023-04-19T04:27:17;96732.94;;;8.96;100.00
34297;BME280;20564;42.902;25.336;2023-04-19T04:30:01;96737.91;;;8.99;100.00
34297;BME280;20564;42.902;25.336;2023-04-19T04:35:24;96740.69;;;9.07;100.00
34297;BME280;20564;42.902;25.336;2023-04-19T04:37:55;96739.00;;;9.06;100.00
34297;BME280;20564;42.902;25.336;2023-04-19T04:40:22;96732.09;;;9.05;100.00
34297;BME280;20564;42.902;25.336;2023-04-19T04:42:49;96739.25;;;9.12;100.00
34297;BME280;20564;42.902;25.336;2023-04-19T04:45:18;96739.53;;;9.19;100.00
34297;BME280;20564;42.902;25.336;2023-04-19T04:47:45;96738.16;;;9.15;100.00
34297;BME280;20564;42.902;25.336;2023-04-19T04:50:12;96748.38;;;9.18;100.00
34297;BME280;20564;42.902;25.336;2023-04-19T04:52:39;96748.78;;;9.23;100.00
34297;BME280;20564;42.902;25.336;2023-04-19T04:55:06;96741.19;;;9.20;100.00
34297;BME280;20564;42.902;25.336;2023-04-19T04:57:33;96742.81;;;9.21;100.00
34297;BME280;20564;42.902;25.336;2023-04-19T05:00:01;96738.56;;;9.20;100.00
34297;BME280;20564;42.902;25.336;2023-04-19T05:02:28;96740.19;;;9.21;100.00
34297;BME280;20564;42.902;25.336;2023-04-19T05:04:56;96740.50;;;9.18;100.00
34297;BME280;20564;42.902;25.336;2023-04-19T05:07:23;96745.31;;;9.23;100.00
34297;BME280;20564;42.902;25.336;2023-04-19T05:09:50;96745.59;;;9.20;100.00
34297;BME280;20564;42.902;25.336;2023-04-19T05:12:17;96750.31;;;9.16;100.00
34297;BME280;20564;42.902;25.336;2023-04-19T05:14:47;96745.34;;;9.13;100.00
34297;BME280;20564;42.902;25.336;2023-04-19T05:17:15;96744.09;;;9.17;100.00
34297;BME280;20564;42.902;25.336;2023-04-19T05:19:43;96745.44;;;9.21;100.00
34297;BME280;20564;42.902;25.336;2023-04-19T05:22:11;96750.03;;;9.19;100.00
34297;BME280;20564;42.902;25.336;2023-04-19T05:24:39;96750.56;;;9.23;100.00
34297;BME280;20564;42.902;25.336;2023-04-19T05:27:11;96753.06;;;9.24;100.00
34297;BME280;20564;42.902;25.336;2023-04-19T05:29:38;96753.31;;;9.21;100.00
34297;BME280;20564;42.902;25.336;2023-04-19T05:32:06;96745.16;;;9.24;100.00
34297;BME280;20564;42.902;25.336;2023-04-19T05:34:34;96759.16;;;9.15;100.00
34297;BME280;20564;42.902;25.336;2023-04-19T05:37:02;96762.75;;;9.14;100.00
34297;BME280;20564;42.902;25.336;2023-04-19T05:39:29;96757.47;;;9.24;100.00
34297;BME280;20564;42.902;25.336;2023-04-19T05:41:56;96762.06;;;9.22;100.00
34297;BME280;20564;42.902;25.336;2023-04-19T05:44:24;96759.44;;;9.22;100.00
34297;BME280;20564;42.902;25.336;2023-04-19T05:46:54;96765.78;;;9.19;100.00
34297;BME280;20564;42.902;25.336;2023-04-19T05:49:21;96763.59;;;9.14;100.00
34297;BME280;20564;42.902;25.336;2023-04-19T05:51:49;96760.28;;;9.12;100.00
34297;BME280;20564;42.902;25.336;2023-04-19T05:54:17;96760.97;;;9.14;100.00
34297;BME280;20564;42.902;25.336;2023-04-19T05:56:45;96767.22;;;9.04;100.00
34297;BME280;20564;42.902;25.336;2023-04-19T05:59:12;96761.13;;;9.03;100.00
34297;BME280;20564;42.902;25.336;2023-04-19T06:01:40;96765.13;;;8.98;100.00
34297;BME280;20564;42.902;25.336;2023-04-19T06:04:07;96768.75;;;8.97;100.00
34297;BME280;20564;42.902;25.336;2023-04-19T06:06:35;96757.41;;;8.86;100.00
34297;BME280;20564;42.902;25.336;2023-04-19T06:09:04;96760.72;;;8.88;100.00
34297;BME280;20564;42.902;25.336;2023-04-19T06:11:39;96771.63;;;8.93;100.00
34297;BME280;20564;42.902;25.336;2023-04-19T06:14:16;96776.88;;;8.93;100.00
34297;BME280;20564;42.902;25.336;2023-04-19T06:16:45;96776.34;;;8.90;100.00
34297;BME280;20564;42.902;25.336;2023-04-19T06:19:13;96778.81;;;8.91;100.00
34297;BME280;20564;42.902;25.336;2023-04-19T06:21:40;96785.75;;;8.92;100.00
34297;BME280;20564;42.902;25.336;2023-04-19T06:24:07;96782.97;;;8.84;100.00
34297;BME280;20564;42.902;25.336;2023-04-19T06:26:38;96787.09;;;8.77;100.00
34297;BME280;20564;42.902;25.336;2023-04-19T06:29:06;96797.31;;;8.80;100.00
34297;BME280;20564;42.902;25.336;2023-04-19T06:31:34;96790.97;;;8.73;100.00
34297;BME280;20564;42.902;25.336;2023-04-19T06:34:01;96792.94;;;8.71;100.00
34297;BME280;20564;42.902;25.336;2023-04-19T06:36:29;96786.31;;;8.67;100.00
34297;BME280;20564;42.902;25.336;2023-04-19T06:38:56;96801.50;;;8.63;100.00
34297;BME280;20564;42.902;25.336;2023-04-19T06:41:23;96793.47;;;8.65;100.00
34297;BME280;20564;42.902;25.336;2023-04-19T06:43:52;96796.78;;;8.67;100.00
34297;BME280;20564;42.902;25.336;2023-04-19T06:46:19;96796.22;;;8.73;100.00
34297;BME280;20564;42.902;25.336;2023-04-19T06:48:47;96805.63;;;8.76;100.00
34297;BME280;20564;42.902;25.336;2023-04-19T06:51:14;96804.66;;;8.77;100.00
34297;BME280;20564;42.902;25.336;2023-04-19T06:53:42;96803.69;;;8.78;100.00
34297;BME280;20564;42.902;25.336;2023-04-19T06:56:10;96809.47;;;8.91;100.00
34297;BME280;20564;42.902;25.336;2023-04-19T06:58:39;96814.72;;;8.91;100.00
34297;BME280;20564;42.902;25.336;2023-04-19T07:01:07;96811.69;;;8.96;100.00
34297;BME280;20564;42.902;25.336;2023-04-19T07:03:35;96808.66;;;8.90;100.00
34297;BME280;20564;42.902;25.336;2023-04-19T07:06:02;96820.53;;;8.94;100.00
34297;BME280;20564;42.902;25.336;2023-04-19T07:08:30;96823.59;;;9.00;100.00
34297;BME280;20564;42.902;25.336;2023-04-19T07:11:14;96812.78;;;9.03;100.00
34297;BME280;20564;42.902;25.336;2023-04-19T07:13:41;96820.38;;;9.15;100.00
34297;BME280;20564;42.902;25.336;2023-04-19T07:16:08;96825.91;;;9.22;100.00
34297;BME280;20564;42.902;25.336;2023-04-19T07:18:35;96818.69;;;9.24;100.00
34297;BME280;20564;42.902;25.336;2023-04-19T07:21:03;96822.13;;;9.34;100.00
34297;BME280;20564;42.902;25.336;2023-04-19T07:23:30;96819.09;;;9.39;100.00
34297;BME280;20564;42.902;25.336;2023-04-19T07:25:58;96825.56;;;9.45;100.00
34297;BME280;20564;42.902;25.336;2023-04-19T07:28:28;96813.53;;;9.52;100.00
34297;BME280;20564;42.902;25.336;2023-04-19T07:30:56;96830.94;;;9.62;100.00
34297;BME280;20564;42.902;25.336;2023-04-19T07:33:23;96831.75;;;9.63;100.00
34297;BME280;20564;42.902;25.336;2023-04-19T07:35:54;96830.34;;;9.69;100.00
34297;BME280;20564;42.902;25.336;2023-04-19T07:38:24;96829.50;;;9.68;100.00
34297;BME280;20564;42.902;25.336;2023-04-19T07:40:52;96829.22;;;9.71;100.00
34297;BME280;20564;42.902;25.336;2023-04-19T07:43:20;96834.09;;;9.66;100.00
34297;BME280;20564;42.902;25.336;2023-04-19T07:45:48;96841.16;;;9.65;100.00
34297;BME280;20564;42.902;25.336;2023-04-19T07:48:16;96829.13;;;9.63;100.00
34297;BME280;20564;42.902;25.336;2023-04-19T07:50:44;96834.19;;;9.74;100.00
34297;BME280;20564;42.902;25.336;2023-04-19T07:53:11;96826.47;;;9.73;100.00
34297;BME280;20564;42.902;25.336;2023-04-19T07:55:38;96825.50;;;9.74;100.00
34297;BME280;20564;42.902;25.336;2023-04-19T07:58:06;96830.28;;;9.88;100.00
34297;BME280;20564;42.902;25.336;2023-04-19T08:00:33;96828.13;;;10.01;100.00
34297;BME280;20564;42.902;25.336;2023-04-19T08:03:02;96830.16;;;10.17;100.00
34297;BME280;20564;42.902;25.336;2023-04-19T08:05:31;96828.72;;;10.23;100.00
34297;BME280;20564;42.902;25.336;2023-04-19T08:08:02;96822.63;;;10.32;100.00
34297;BME280;20564;42.902;25.336;2023-04-19T08:10:32;96827.44;;;10.36;100.00
34297;BME280;20564;42.902;25.336;2023-04-19T08:13:03;96823.75;;;10.29;100.00
34297;BME280;20564;42.902;25.336;2023-04-19T08:15:33;96828.59;;;10.24;100.00
34297;BME280;20564;42.902;25.336;2023-04-19T08:18:04;96828.59;;;10.24;100.00
34297;BME280;20564;42.902;25.336;2023-04-19T08:20:35;96827.13;;;10.12;100.00
34297;BME280;20564;42.902;25.336;2023-04-19T08:23:02;96825.47;;;10.11;100.00
34297;BME280;20564;42.902;25.336;2023-04-19T08:25:47;96829.06;;;10.10;100.00
34297;BME280;20564;42.902;25.336;2023-04-19T08:28:14;96828.63;;;10.14;100.00
34297;BME280;20564;42.902;25.336;2023-04-19T08:30:43;96830.44;;;10.14;100.00
34297;BME280;20564;42.902;25.336;2023-04-19T08:33:10;96827.91;;;10.22;100.00
34297;BME280;20564;42.902;25.336;2023-04-19T08:35:38;96820.69;;;10.24;100.00
34297;BME280;20564;42.902;25.336;2023-04-19T08:38:08;96820.69;;;10.24;100.00
34297;BME280;20564;42.902;25.336;2023-04-19T08:40:48;96823.19;;;10.26;100.00
34297;BME280;20564;42.902;25.336;2023-04-19T08:43:21;96830.16;;;10.17;100.00
34297;BME280;20564;42.902;25.336;2023-04-19T08:45:51;96829.88;;;10.20;100.00
34297;BME280;20564;42.902;25.336;2023-04-19T08:48:21;96826.69;;;10.17;100.00
34297;BME280;20564;42.902;25.336;2023-04-19T08:50:53;96827.22;;;10.20;100.00
34297;BME280;20564;42.902;25.336;2023-04-19T08:53:33;96825.97;;;10.24;100.00
34297;BME280;20564;42.902;25.336;2023-04-19T08:56:02;96818.19;;;10.32;100.00
34297;BME280;20564;42.902;25.336;2023-04-19T08:58:46;96820.59;;;10.44;100.00
34297;BME280;20564;42.902;25.336;2023-04-19T09:01:17;96820.66;;;10.34;100.00
34297;BME280;20564;42.902;25.336;2023-04-19T09:04:05;96822.34;;;10.35;100.00
34297;BME280;20564;42.902;25.336;2023-04-19T09:06:55;96819.91;;;10.42;100.00
34297;BME280;20564;42.902;25.336;2023-04-19T09:09:27;96823.31;;;10.52;100.00
34297;BME280;20564;42.902;25.336;2023-04-19T09:12:15;96822.72;;;10.58;100.00
34297;BME280;20564;42.902;25.336;2023-04-19T09:14:46;96817.72;;;10.65;100.00
34297;BME280;20564;42.902;25.336;2023-04-19T09:17:16;96820.88;;;10.68;100.00
34297;BME280;20564;42.902;25.336;2023-04-19T09:19:50;96829.81;;;10.75;100.00
34297;BME280;20564;42.902;25.336;2023-04-19T09:22:18;96825.63;;;10.82;100.00
34297;BME280;20564;42.902;25.336;2023-04-19T09:24:45;96820.41;;;10.91;100.00
34297;BME280;20564;42.902;25.336;2023-04-19T09:27:24;96824.38;;;10.95;100.00
34297;BME280;20564;42.902;25.336;2023-04-19T09:29:53;96828.31;;;10.91;100.00
34297;BME280;20564;42.902;25.336;2023-04-19T09:32:25;96828.31;;;10.91;100.00
34297;BME280;20564;42.902;25.336;2023-04-19T09:35:03;96829.34;;;10.98;100.00
34297;BME280;20564;42.902;25.336;2023-04-19T09:37:34;96819.41;;;11.09;100.00
34297;BME280;20564;42.902;25.336;2023-04-19T09:40:23;96823.53;;;11.30;100.00
34297;BME280;20564;42.902;25.336;2023-04-19T09:42:50;96813.91;;;11.47;100.00
34297;BME280;20564;42.902;25.336;2023-04-19T09:45:22;96821.56;;;11.58;100.00
34297;BME280;20564;42.902;25.336;2023-04-19T09:48:01;96822.00;;;11.79;100.00
34297;BME280;20564;42.902;25.336;2023-04-19T09:50:29;96807.28;;;11.95;100.00
34297;BME280;20564;42.902;25.336;2023-04-19T09:53:21;96797.13;;;12.08;100.00
34297;BME280;20564;42.902;25.336;2023-04-19T09:55:49;96798.34;;;12.22;100.00
34297;BME280;20564;42.902;25.336;2023-04-19T09:58:26;96798.69;;;12.35;100.00
34297;BME280;20564;42.902;25.336;2023-04-19T10:01:12;96799.19;;;12.39;100.00
34297;BME280;20564;42.902;25.336;2023-04-19T10:03:48;96798.56;;;12.45;100.00
34297;BME280;20564;42.902;25.336;2023-04-19T10:06:18;96791.94;;;12.41;100.00
34297;BME280;20564;42.902;25.336;2023-04-19T10:09:00;96795.22;;;12.35;100.00
34297;BME280;20564;42.902;25.336;2023-04-19T10:11:34;96793.72;;;12.24;100.00
34297;BME280;20564;42.902;25.336;2023-04-19T10:14:06;96804.44;;;12.22;100.00
34297;BME280;20564;42.902;25.336;2023-04-19T10:16:38;96794.91;;;12.29;100.00
34297;BME280;20564;42.902;25.336;2023-04-19T10:19:12;96788.31;;;12.42;100.00
34297;BME280;20564;42.902;25.336;2023-04-19T10:21:42;96788.50;;;12.48;100.00
34297;BME280;20564;42.902;25.336;2023-04-19T10:24:23;96787.69;;;12.64;100.00
34297;BME280;20564;42.902;25.336;2023-04-19T10:27:05;96785.91;;;12.73;100.00
34297;BME280;20564;42.902;25.336;2023-04-19T10:29:59;96785.72;;;12.83;100.00
34297;BME280;20564;42.902;25.336;2023-04-19T10:32:37;96780.78;;;12.79;100.00
34297;BME280;20564;42.902;25.336;2023-04-19T10:35:19;96783.59;;;12.78;100.00
34297;BME280;20564;42.902;25.336;2023-04-19T10:38:18;96787.91;;;12.87;100.00
34297;BME280;20564;42.902;25.336;2023-04-19T10:43:18;96775.03;;;12.92;100.00
34297;BME280;20564;42.902;25.336;2023-04-19T10:45:47;96774.84;;;12.86;99.80
34297;BME280;20564;42.902;25.336;2023-04-19T10:51:13;96776.50;;;12.70;100.00
34297;BME280;20564;42.902;25.336;2023-04-19T10:56:57;96767.25;;;12.66;100.00
34297;BME280;20564;42.902;25.336;2023-04-19T10:59:28;96769.56;;;12.77;100.00
34297;BME280;20564;42.902;25.336;2023-04-19T11:02:05;96771.56;;;12.84;100.00
34297;BME280;20564;42.902;25.336;2023-04-19T11:07:16;96765.25;;;13.01;99.94
34297;BME280;20564;42.902;25.336;2023-04-19T11:09:55;96761.97;;;13.07;99.88
34297;BME280;20564;42.902;25.336;2023-04-19T11:12:42;96765.63;;;13.06;96.04
34297;BME280;20564;42.902;25.336;2023-04-19T11:15:10;96757.00;;;13.04;99.20
34297;BME280;20564;42.902;25.336;2023-04-19T11:17:38;96755.38;;;13.03;97.27
34297;BME280;20564;42.902;25.336;2023-04-19T11:20:06;96753.03;;;13.08;96.48
34297;BME280;20564;42.902;25.336;2023-04-19T11:22:38;96758.31;;;13.08;96.92
34297;BME280;20564;42.902;25.336;2023-04-19T11:25:19;96750.06;;;13.11;95.69
34297;BME280;20564;42.902;25.336;2023-04-19T11:27:49;96747.09;;;13.14;94.85
34297;BME280;20564;42.902;25.336;2023-04-19T11:30:19;96757.66;;;13.14;94.31
34297;BME280;20564;42.902;25.336;2023-04-19T11:32:51;96758.97;;;13.18;93.98
34297;BME280;20564;42.902;25.336;2023-04-19T11:35:21;96752.69;;;13.19;94.50
34297;BME280;20564;42.902;25.336;2023-04-19T11:37:49;96760.97;;;13.33;94.34
34297;BME280;20564;42.902;25.336;2023-04-19T11:40:18;96751.38;;;13.40;94.40
34297;BME280;20564;42.902;25.336;2023-04-19T11:43:00;96743.47;;;13.32;90.30
34297;BME280;20564;42.902;25.336;2023-04-19T11:45:36;96744.31;;;13.32;92.13
34297;BME280;20564;42.902;25.336;2023-04-19T11:48:07;96747.44;;;13.36;92.38
34297;BME280;20564;42.902;25.336;2023-04-19T11:50:42;96744.44;;;13.47;90.51
34297;BME280;20564;42.902;25.336;2023-04-19T11:53:20;96738.81;;;13.50;87.98
34297;BME280;20564;42.902;25.336;2023-04-19T11:58:48;96738.47;;;13.53;88.92
34297;BME280;20564;42.902;25.336;2023-04-19T12:02:10;96732.03;;;13.47;88.50
34297;BME280;20564;42.902;25.336;2023-04-19T12:04:44;96733.53;;;13.42;88.19
34297;BME280;20564;42.902;25.336;2023-04-19T12:07:13;96736.03;;;13.27;88.04
34297;BME280;20564;42.902;25.336;2023-04-19T12:09:48;96732.72;;;13.09;85.51
34297;BME280;20564;42.902;25.336;2023-04-19T12:12:33;96731.44;;;12.88;88.20
34297;BME280;20564;42.902;25.336;2023-04-19T12:15:00;96734.91;;;12.81;90.34
34297;BME280;20564;42.902;25.336;2023-04-19T12:17:28;96724.66;;;12.77;91.94
34297;BME280;20564;42.902;25.336;2023-04-19T12:20:37;96722.66;;;12.79;97.14
34297;BME280;20564;42.902;25.336;2023-04-19T12:23:07;96717.06;;;12.83;95.20
34297;BME280;20564;42.902;25.336;2023-04-19T12:25:38;96718.06;;;12.82;92.99
34297;BME280;20564;42.902;25.336;2023-04-19T12:28:07;96712.44;;;12.85;95.81
34297;BME280;20564;42.902;25.336;2023-04-19T12:30:35;96705.84;;;12.89;99.99
34297;BME280;20564;42.902;25.336;2023-04-19T12:33:05;96704.69;;;12.91;98.94
34297;BME280;20564;42.902;25.336;2023-04-19T12:35:34;96698.59;;;12.91;99.06
34297;BME280;20564;42.902;25.336;2023-04-19T12:38:02;96697.91;;;12.97;100.00
34297;BME280;20564;42.902;25.336;2023-04-19T12:40:29;96693.28;;;13.07;100.00
34297;BME280;20564;42.902;25.336;2023-04-19T12:42:59;96696.22;;;13.12;99.28
34297;BME280;20564;42.902;25.336;2023-04-19T12:45:26;96698.88;;;13.04;96.44
34297;BME280;20564;42.902;25.336;2023-04-19T12:47:57;96696.22;;;13.12;95.70
34297;BME280;20564;42.902;25.336;2023-04-19T12:50:26;96691.97;;;13.03;93.86
34297;BME280;20564;42.902;25.336;2023-04-19T12:52:53;96698.88;;;13.04;94.65
34297;BME280;20564;42.902;25.336;2023-04-19T12:55:20;96693.94;;;13.01;97.01
34297;BME280;20564;42.902;25.336;2023-04-19T12:57:48;96698.22;;;12.94;97.92
34297;BME280;20564;42.902;25.336;2023-04-19T13:00:15;96698.09;;;12.87;98.75
34297;BME280;20564;42.902;25.336;2023-04-19T13:02:44;96692.63;;;12.89;97.29
34297;BME280;20564;42.902;25.336;2023-04-19T13:05:15;96703.88;;;12.91;97.37
34297;BME280;20564;42.902;25.336;2023-04-19T13:07:46;96698.91;;;12.88;97.51
34297;BME280;20564;42.902;25.336;2023-04-19T13:10:13;96691.97;;;12.87;97.99
34297;BME280;20564;42.902;25.336;2023-04-19T13:12:46;96697.59;;;12.92;98.59
34297;BME280;20564;42.902;25.336;2023-04-19T13:15:20;96696.25;;;12.96;100.00
34297;BME280;20564;42.902;25.336;2023-04-19T13:17:47;96696.25;;;12.96;99.85
34297;BME280;20564;42.902;25.336;2023-04-19T13:20:17;96696.25;;;12.96;100.00
34297;BME280;20564;42.902;25.336;2023-04-19T13:22:47;96680.22;;;12.97;100.00
34297;BME280;20564;42.902;25.336;2023-04-19T13:25:14;96675.94;;;12.96;98.77